sensor_id;sensor_type;location;lat;lon;timestamp;temperature;humidity
7686;DHT22;3885;51.474;-2.576;2023-01-29T00:01:50;6.30;99.90
7686;DHT22;3885;51.474;-2.576;2023-01-29T00:04:18;6.30;99.90
7686;DHT22;3885;51.474;-2.576;2023-01-29T00:14:07;6.70;99.90
7686;DHT22;3885;51.474;-2.576;2023-01-29T00:21:30;7.20;99.90
7686;DHT22;3885;51.474;-2.576;2023-01-29T00:23:58;7.30;99.90
7686;DHT22;3885;51.474;-2.576;2023-01-29T00:26:26;7.30;99.90
7686;DHT22;3885;51.474;-2.576;2023-01-29T00:28:53;7.20;99.90
7686;DHT22;3885;51.474;-2.576;2023-01-29T00:33:51;7.60;99.90
7686;DHT22;3885;51.474;-2.576;2023-01-29T00:36:19;7.90;99.90
7686;DHT22;3885;51.474;-2.576;2023-01-29T00:44:08;7.40;99.90
7686;DHT22;3885;51.474;-2.576;2023-01-29T00:46:53;7.10;99.90
7686;DHT22;3885;51.474;-2.576;2023-01-29T00:49:20;7.00;99.90
7686;DHT22;3885;51.474;-2.576;2023-01-29T00:59:30;7.00;99.90
7686;DHT22;3885;51.474;-2.576;2023-01-29T01:09:38;6.80;99.90
7686;DHT22;3885;51.474;-2.576;2023-01-29T01:14:49;6.60;99.90
7686;DHT22;3885;51.474;-2.576;2023-01-29T01:17:16;6.60;99.90
7686;DHT22;3885;51.474;-2.576;2023-01-29T01:22:10;6.80;99.90
7686;DHT22;3885;51.474;-2.576;2023-01-29T01:24:39;6.80;99.90
7686;DHT22;3885;51.474;-2.576;2023-01-29T01:27:06;6.70;99.90
7686;DHT22;3885;51.474;-2.576;2023-01-29T01:29:33;6.70;99.90
7686;DHT22;3885;51.474;-2.576;2023-01-29T01:36:55;6.60;99.90
7686;DHT22;3885;51.474;-2.576;2023-01-29T01:41:51;6.60;99.90
7686;DHT22;3885;51.474;-2.576;2023-01-29T01:51:59;7.70;99.90
7686;DHT22;3885;51.474;-2.576;2023-01-29T01:54:27;7.60;99.90
7686;DHT22;3885;51.474;-2.576;2023-01-29T01:59:34;7.30;99.90
7686;DHT22;3885;51.474;-2.576;2023-01-29T02:04:49;7.00;99.90
7686;DHT22;3885;51.474;-2.576;2023-01-29T02:12:47;6.70;99.90
7686;DHT22;3885;51.474;-2.576;2023-01-29T02:15:14;6.70;99.90
7686;DHT22;3885;51.474;-2.576;2023-01-29T02:20:17;7.10;99.90
7686;DHT22;3885;51.474;-2.576;2023-01-29T02:25:49;7.00;99.90
7686;DHT22;3885;51.474;-2.576;2023-01-29T02:28:38;6.90;99.90
7686;DHT22;3885;51.474;-2.576;2023-01-29T02:33:45;6.80;99.90
7686;DHT22;3885;51.474;-2.576;2023-01-29T02:41:24;6.60;99.90
7686;DHT22;3885;51.474;-2.576;2023-01-29T02:46:29;6.50;99.90
7686;DHT22;3885;51.474;-2.576;2023-01-29T02:49:01;6.40;99.90
7686;DHT22;3885;51.474;-2.576;2023-01-29T02:51:33;6.40;99.90
7686;DHT22;3885;51.474;-2.576;2023-01-29T02:54:04;6.40;99.90
7686;DHT22;3885;51.474;-2.576;2023-01-29T02:59:07;6.40;99.90
7686;DHT22;3885;51.474;-2.576;2023-01-29T03:01:41;6.30;99.90
7686;DHT22;3885;51.474;-2.576;2023-01-29T03:04:13;6.40;99.90
7686;DHT22;3885;51.474;-2.576;2023-01-29T03:06:43;6.40;99.90
7686;DHT22;3885;51.474;-2.576;2023-01-29T03:11:47;6.30;99.90
7686;DHT22;3885;51.474;-2.576;2023-01-29T03:14:20;6.30;99.90
7686;DHT22;3885;51.474;-2.576;2023-01-29T03:16:49;6.20;99.90
7686;DHT22;3885;51.474;-2.576;2023-01-29T03:19:19;6.20;99.90
7686;DHT22;3885;51.474;-2.576;2023-01-29T03:21:50;6.20;99.90
7686;DHT22;3885;51.474;-2.576;2023-01-29T03:29:58;6.10;99.90
7686;DHT22;3885;51.474;-2.576;2023-01-29T03:32:44;6.00;99.90
7686;DHT22;3885;51.474;-2.576;2023-01-29T03:35:13;6.00;99.90
7686;DHT22;3885;51.474;-2.576;2023-01-29T03:37:46;6.00;99.90
7686;DHT22;3885;51.474;-2.576;2023-01-29T03:42:54;6.00;99.90
7686;DHT22;3885;51.474;-2.576;2023-01-29T03:45:33;6.00;99.90
7686;DHT22;3885;51.474;-2.576;2023-01-29T03:50:36;5.90;99.90
7686;DHT22;3885;51.474;-2.576;2023-01-29T03:53:09;6.00;99.90
7686;DHT22;3885;51.474;-2.576;2023-01-29T03:55:42;6.00;99.90
7686;DHT22;3885;51.474;-2.576;2023-01-29T03:58:18;6.00;99.90
7686;DHT22;3885;51.474;-2.576;2023-01-29T04:03:20;6.10;99.90
7686;DHT22;3885;51.474;-2.576;2023-01-29T04:05:51;6.20;99.90
7686;DHT22;3885;51.474;-2.576;2023-01-29T04:08:31;6.20;99.90
7686;DHT22;3885;51.474;-2.576;2023-01-29T04:11:04;6.20;99.90
7686;DHT22;3885;51.474;-2.576;2023-01-29T04:13:33;6.20;99.90
7686;DHT22;3885;51.474;-2.576;2023-01-29T04:20:59;6.10;99.90
7686;DHT22;3885;51.474;-2.576;2023-01-29T04:23:27;6.20;99.90
7686;DHT22;3885;51.474;-2.576;2023-01-29T04:26:08;6.20;99.90
7686;DHT22;3885;51.474;-2.576;2023-01-29T04:31:13;6.30;99.90
7686;DHT22;3885;51.474;-2.576;2023-01-29T04:33:45;6.30;99.90
7686;DHT22;3885;51.474;-2.576;2023-01-29T04:36:24;6.30;99.90
7686;DHT22;3885;51.474;-2.576;2023-01-29T04:39:05;6.20;99.90
7686;DHT22;3885;51.474;-2.576;2023-01-29T04:41:39;6.20;99.90
7686;DHT22;3885;51.474;-2.576;2023-01-29T04:44:14;6.30;99.90
7686;DHT22;3885;51.474;-2.576;2023-01-29T04:46:48;6.30;99.90
7686;DHT22;3885;51.474;-2.576;2023-01-29T04:51:52;6.30;99.90
7686;DHT22;3885;51.474;-2.576;2023-01-29T04:54:30;6.30;99.90
7686;DHT22;3885;51.474;-2.576;2023-01-29T04:57:07;6.30;99.90
7686;DHT22;3885;51.474;-2.576;2023-01-29T04:59:40;6.30;99.90
7686;DHT22;3885;51.474;-2.576;2023-01-29T05:02:09;6.30;99.90
7686;DHT22;3885;51.474;-2.576;2023-01-29T05:04:39;6.30;99.90
7686;DHT22;3885;51.474;-2.576;2023-01-29T05:07:10;6.40;99.90
7686;DHT22;3885;51.474;-2.576;2023-01-29T05:09:38;6.40;99.90
7686;DHT22;3885;51.474;-2.576;2023-01-29T05:12:06;6.40;99.90
7686;DHT22;3885;51.474;-2.576;2023-01-29T05:14:35;6.40;99.90
7686;DHT22;3885;51.474;-2.576;2023-01-29T05:17:13;6.40;99.90
7686;DHT22;3885;51.474;-2.576;2023-01-29T05:19:42;6.40;99.90
7686;DHT22;3885;51.474;-2.576;2023-01-29T05:22:12;6.40;99.90
7686;DHT22;3885;51.474;-2.576;2023-01-29T05:27:10;6.30;99.90
7686;DHT22;3885;51.474;-2.576;2023-01-29T05:29:58;6.30;99.90
7686;DHT22;3885;51.474;-2.576;2023-01-29T05:32:25;6.30;99.90
7686;DHT22;3885;51.474;-2.576;2023-01-29T05:34:53;6.30;99.90
7686;DHT22;3885;51.474;-2.576;2023-01-29T05:37:20;6.30;99.90
7686;DHT22;3885;51.474;-2.576;2023-01-29T05:39:47;6.30;99.90
7686;DHT22;3885;51.474;-2.576;2023-01-29T05:42:14;6.30;99.90
7686;DHT22;3885;51.474;-2.576;2023-01-29T05:44:41;6.40;99.90
7686;DHT22;3885;51.474;-2.576;2023-01-29T05:47:08;6.40;99.90
7686;DHT22;3885;51.474;-2.576;2023-01-29T05:52:03;6.40;99.90
7686;DHT22;3885;51.474;-2.576;2023-01-29T05:54:30;6.50;99.90
7686;DHT22;3885;51.474;-2.576;2023-01-29T05:59:24;6.50;99.90
7686;DHT22;3885;51.474;-2.576;2023-01-29T06:01:51;6.50;99.90
7686;DHT22;3885;51.474;-2.576;2023-01-29T06:04:18;6.60;99.90
7686;DHT22;3885;51.474;-2.576;2023-01-29T06:06:45;6.60;99.90
7686;DHT22;3885;51.474;-2.576;2023-01-29T06:11:41;6.50;99.90
7686;DHT22;3885;51.474;-2.576;2023-01-29T06:14:08;6.60;99.90
7686;DHT22;3885;51.474;-2.576;2023-01-29T06:16:35;6.60;99.90
7686;DHT22;3885;51.474;-2.576;2023-01-29T06:19:01;6.60;99.90
7686;DHT22;3885;51.474;-2.576;2023-01-29T06:21:28;6.70;99.90
7686;DHT22;3885;51.474;-2.576;2023-01-29T06:23:55;6.60;99.90
7686;DHT22;3885;51.474;-2.576;2023-01-29T06:26:24;6.60;99.90
7686;DHT22;3885;51.474;-2.576;2023-01-29T06:28:51;6.70;99.90
7686;DHT22;3885;51.474;-2.576;2023-01-29T06:31:17;6.70;99.90
7686;DHT22;3885;51.474;-2.576;2023-01-29T06:33:44;6.70;99.90
7686;DHT22;3885;51.474;-2.576;2023-01-29T06:36:11;6.70;99.90
7686;DHT22;3885;51.474;-2.576;2023-01-29T06:41:10;6.60;99.90
7686;DHT22;3885;51.474;-2.576;2023-01-29T06:43:38;6.60;99.90
7686;DHT22;3885;51.474;-2.576;2023-01-29T06:46:07;6.70;99.90
7686;DHT22;3885;51.474;-2.576;2023-01-29T06:48:34;6.60;99.90
7686;DHT22;3885;51.474;-2.576;2023-01-29T06:51:02;6.60;99.90
7686;DHT22;3885;51.474;-2.576;2023-01-29T06:55:56;6.60;99.90
7686;DHT22;3885;51.474;-2.576;2023-01-29T06:58:23;6.60;99.90
7686;DHT22;3885;51.474;-2.576;2023-01-29T07:03:19;6.60;99.90
7686;DHT22;3885;51.474;-2.576;2023-01-29T07:05:50;6.60;99.90
7686;DHT22;3885;51.474;-2.576;2023-01-29T07:08:17;6.60;99.90
7686;DHT22;3885;51.474;-2.576;2023-01-29T07:10:47;6.70;99.90
7686;DHT22;3885;51.474;-2.576;2023-01-29T07:15:41;6.70;99.90
7686;DHT22;3885;51.474;-2.576;2023-01-29T07:18:10;6.70;99.90
7686;DHT22;3885;51.474;-2.576;2023-01-29T07:20:38;6.70;99.90
7686;DHT22;3885;51.474;-2.576;2023-01-29T07:23:07;6.70;99.90
7686;DHT22;3885;51.474;-2.576;2023-01-29T07:25:34;6.70;99.90
7686;DHT22;3885;51.474;-2.576;2023-01-29T07:28:01;6.70;99.90
7686;DHT22;3885;51.474;-2.576;2023-01-29T07:35:28;6.80;99.90
7686;DHT22;3885;51.474;-2.576;2023-01-29T07:37:55;6.90;99.90
7686;DHT22;3885;51.474;-2.576;2023-01-29T07:40:22;6.90;99.90
7686;DHT22;3885;51.474;-2.576;2023-01-29T07:42:49;6.90;99.90
7686;DHT22;3885;51.474;-2.576;2023-01-29T07:45:16;7.00;99.90
7686;DHT22;3885;51.474;-2.576;2023-01-29T07:47:43;7.10;99.90
7686;DHT22;3885;51.474;-2.576;2023-01-29T07:50:10;7.00;99.90
7686;DHT22;3885;51.474;-2.576;2023-01-29T07:52:39;7.10;99.90
7686;DHT22;3885;51.474;-2.576;2023-01-29T07:57:33;7.10;99.90
7686;DHT22;3885;51.474;-2.576;2023-01-29T08:02:27;7.10;99.90
7686;DHT22;3885;51.474;-2.576;2023-01-29T08:04:54;7.10;99.90
7686;DHT22;3885;51.474;-2.576;2023-01-29T08:07:21;7.10;99.90
7686;DHT22;3885;51.474;-2.576;2023-01-29T08:12:16;7.10;99.90
7686;DHT22;3885;51.474;-2.576;2023-01-29T08:14:43;7.10;99.90
7686;DHT22;3885;51.474;-2.576;2023-01-29T08:17:11;7.20;99.90
7686;DHT22;3885;51.474;-2.576;2023-01-29T08:19:38;7.10;99.90
7686;DHT22;3885;51.474;-2.576;2023-01-29T08:22:05;7.20;99.90
7686;DHT22;3885;51.474;-2.576;2023-01-29T08:24:32;7.20;99.90
7686;DHT22;3885;51.474;-2.576;2023-01-29T08:27:01;7.20;99.90
7686;DHT22;3885;51.474;-2.576;2023-01-29T08:29:28;7.20;99.90
7686;DHT22;3885;51.474;-2.576;2023-01-29T08:31:55;7.20;99.90
7686;DHT22;3885;51.474;-2.576;2023-01-29T08:34:22;7.20;99.90
7686;DHT22;3885;51.474;-2.576;2023-01-29T08:39:16;7.30;99.90
7686;DHT22;3885;51.474;-2.576;2023-01-29T08:41:43;7.30;99.90
7686;DHT22;3885;51.474;-2.576;2023-01-29T08:49:06;7.40;99.90
7686;DHT22;3885;51.474;-2.576;2023-01-29T08:51:33;7.40;99.90
7686;DHT22;3885;51.474;-2.576;2023-01-29T08:54:00;7.40;99.90
7686;DHT22;3885;51.474;-2.576;2023-01-29T08:58:54;7.40;99.90
7686;DHT22;3885;51.474;-2.576;2023-01-29T09:01:22;7.40;99.90
7686;DHT22;3885;51.474;-2.576;2023-01-29T09:03:49;7.50;99.90
7686;DHT22;3885;51.474;-2.576;2023-01-29T09:06:17;7.50;99.90
7686;DHT22;3885;51.474;-2.576;2023-01-29T09:08:44;7.50;99.90
7686;DHT22;3885;51.474;-2.576;2023-01-29T09:11:11;7.40;99.90
7686;DHT22;3885;51.474;-2.576;2023-01-29T09:16:06;7.40;99.90
7686;DHT22;3885;51.474;-2.576;2023-01-29T09:18:34;7.50;99.90
7686;DHT22;3885;51.474;-2.576;2023-01-29T09:21:01;7.50;99.90
7686;DHT22;3885;51.474;-2.576;2023-01-29T09:23:29;7.50;99.90
7686;DHT22;3885;51.474;-2.576;2023-01-29T09:28:23;7.60;99.90
7686;DHT22;3885;51.474;-2.576;2023-01-29T09:30:50;7.60;99.90
7686;DHT22;3885;51.474;-2.576;2023-01-29T09:33:17;7.50;99.90
7686;DHT22;3885;51.474;-2.576;2023-01-29T09:38:13;7.50;99.90
7686;DHT22;3885;51.474;-2.576;2023-01-29T09:40:47;7.60;99.90
7686;DHT22;3885;51.474;-2.576;2023-01-29T09:43:19;7.60;99.90
7686;DHT22;3885;51.474;-2.576;2023-01-29T09:45:52;7.60;99.90
7686;DHT22;3885;51.474;-2.576;2023-01-29T09:53:24;7.70;99.90
7686;DHT22;3885;51.474;-2.576;2023-01-29T10:01:02;7.80;99.90
7686;DHT22;3885;51.474;-2.576;2023-01-29T10:06:44;7.80;99.90
7686;DHT22;3885;51.474;-2.576;2023-01-29T10:12:35;7.90;99.90
7686;DHT22;3885;51.474;-2.576;2023-01-29T10:15:17;8.10;99.90
7686;DHT22;3885;51.474;-2.576;2023-01-29T10:17:58;8.10;99.90
7686;DHT22;3885;51.474;-2.576;2023-01-29T10:20:52;8.10;99.90
7686;DHT22;3885;51.474;-2.576;2023-01-29T10:25:52;8.10;99.90
7686;DHT22;3885;51.474;-2.576;2023-01-29T10:35:49;8.50;99.90
7686;DHT22;3885;51.474;-2.576;2023-01-29T10:44:07;8.20;99.90
7686;DHT22;3885;51.474;-2.576;2023-01-29T10:46:50;8.10;99.90
7686;DHT22;3885;51.474;-2.576;2023-01-29T10:49:34;8.20;99.90
7686;DHT22;3885;51.474;-2.576;2023-01-29T10:52:14;8.20;99.90
7686;DHT22;3885;51.474;-2.576;2023-01-29T10:54:52;8.20;99.90
7686;DHT22;3885;51.474;-2.576;2023-01-29T10:57:35;8.30;99.90
7686;DHT22;3885;51.474;-2.576;2023-01-29T11:00:08;8.30;99.90
7686;DHT22;3885;51.474;-2.576;2023-01-29T11:02:42;8.30;99.90
7686;DHT22;3885;51.474;-2.576;2023-01-29T11:05:19;8.30;99.90
7686;DHT22;3885;51.474;-2.576;2023-01-29T11:07:59;8.30;99.90
7686;DHT22;3885;51.474;-2.576;2023-01-29T11:10:28;8.40;99.90
7686;DHT22;3885;51.474;-2.576;2023-01-29T11:12:58;8.50;99.90
7686;DHT22;3885;51.474;-2.576;2023-01-29T11:15:28;8.50;99.90
7686;DHT22;3885;51.474;-2.576;2023-01-29T11:20:30;8.60;99.90
7686;DHT22;3885;51.474;-2.576;2023-01-29T11:22:57;8.70;99.90
7686;DHT22;3885;51.474;-2.576;2023-01-29T11:27:57;8.70;99.90
7686;DHT22;3885;51.474;-2.576;2023-01-29T11:30:27;8.70;99.90
7686;DHT22;3885;51.474;-2.576;2023-01-29T11:33:06;8.70;99.90
7686;DHT22;3885;51.474;-2.576;2023-01-29T11:35:34;8.70;99.90
7686;DHT22;3885;51.474;-2.576;2023-01-29T11:40:44;8.80;99.90
7686;DHT22;3885;51.474;-2.576;2023-01-29T11:45:51;8.90;99.90
7686;DHT22;3885;51.474;-2.576;2023-01-29T11:50:52;9.00;99.90
7686;DHT22;3885;51.474;-2.576;2023-01-29T11:53:26;9.00;99.90
7686;DHT22;3885;51.474;-2.576;2023-01-29T11:55:56;9.10;99.90
7686;DHT22;3885;51.474;-2.576;2023-01-29T11:58:27;9.20;99.90
7686;DHT22;3885;51.474;-2.576;2023-01-29T12:00:56;9.30;99.90
7686;DHT22;3885;51.474;-2.576;2023-01-29T12:03:32;9.30;99.90
7686;DHT22;3885;51.474;-2.576;2023-01-29T12:06:02;9.50;99.90
7686;DHT22;3885;51.474;-2.576;2023-01-29T12:08:34;9.50;99.90
7686;DHT22;3885;51.474;-2.576;2023-01-29T12:11:10;9.60;99.90
7686;DHT22;3885;51.474;-2.576;2023-01-29T12:16:22;9.60;99.90
7686;DHT22;3885;51.474;-2.576;2023-01-29T12:18:54;9.70;99.90
7686;DHT22;3885;51.474;-2.576;2023-01-29T12:26:29;9.90;99.90
7686;DHT22;3885;51.474;-2.576;2023-01-29T12:29:12;9.90;99.90
7686;DHT22;3885;51.474;-2.576;2023-01-29T12:31:47;9.90;99.90
7686;DHT22;3885;51.474;-2.576;2023-01-29T12:34:21;9.90;99.90
7686;DHT22;3885;51.474;-2.576;2023-01-29T12:39:21;9.90;99.90
7686;DHT22;3885;51.474;-2.576;2023-01-29T12:41:52;9.90;99.90
7686;DHT22;3885;51.474;-2.576;2023-01-29T12:44:25;9.90;99.90
7686;DHT22;3885;51.474;-2.576;2023-01-29T12:49:27;10.00;99.90
7686;DHT22;3885;51.474;-2.576;2023-01-29T12:54:32;10.20;99.90
7686;DHT22;3885;51.474;-2.576;2023-01-29T12:57:02;10.30;99.90
7686;DHT22;3885;51.474;-2.576;2023-01-29T12:59:38;10.30;99.90
7686;DHT22;3885;51.474;-2.576;2023-01-29T13:02:25;10.30;99.90
7686;DHT22;3885;51.474;-2.576;2023-01-29T13:04:57;10.30;99.90
7686;DHT22;3885;51.474;-2.576;2023-01-29T13:07:30;10.50;99.90
7686;DHT22;3885;51.474;-2.576;2023-01-29T13:12:31;10.40;99.90
7686;DHT22;3885;51.474;-2.576;2023-01-29T13:15:04;10.40;99.90
7686;DHT22;3885;51.474;-2.576;2023-01-29T13:22:35;10.30;99.90
7686;DHT22;3885;51.474;-2.576;2023-01-29T13:25:04;10.30;99.90
7686;DHT22;3885;51.474;-2.576;2023-01-29T13:34:58;10.30;99.90
7686;DHT22;3885;51.474;-2.576;2023-01-29T13:37:30;10.40;99.90
7686;DHT22;3885;51.474;-2.576;2023-01-29T13:39:59;10.40;99.90
7686;DHT22;3885;51.474;-2.576;2023-01-29T13:47:33;10.50;99.90
7686;DHT22;3885;51.474;-2.576;2023-01-29T13:55:03;10.70;99.90
7686;DHT22;3885;51.474;-2.576;2023-01-29T14:00:50;10.70;99.90
7686;DHT22;3885;51.474;-2.576;2023-01-29T14:03:50;10.80;99.90
7686;DHT22;3885;51.474;-2.576;2023-01-29T14:06:51;10.80;99.90
7686;DHT22;3885;51.474;-2.576;2023-01-29T14:15:04;10.80;99.90
7686;DHT22;3885;51.474;-2.576;2023-01-29T14:20:23;10.70;99.90
7686;DHT22;3885;51.474;-2.576;2023-01-29T14:27:49;10.60;99.90
7686;DHT22;3885;51.474;-2.576;2023-01-29T14:30:17;10.60;99.90
7686;DHT22;3885;51.474;-2.576;2023-01-29T14:35:18;10.50;99.90
7686;DHT22;3885;51.474;-2.576;2023-01-29T14:37:48;10.30;99.90
7686;DHT22;3885;51.474;-2.576;2023-01-29T14:42:55;10.30;99.90
7686;DHT22;3885;51.474;-2.576;2023-01-29T14:45:26;10.30;99.90
7686;DHT22;3885;51.474;-2.576;2023-01-29T14:48:00;10.20;99.90
7686;DHT22;3885;51.474;-2.576;2023-01-29T14:53:18;10.10;99.90
7686;DHT22;3885;51.474;-2.576;2023-01-29T14:55:49;10.10;99.90
7686;DHT22;3885;51.474;-2.576;2023-01-29T14:58:23;10.10;99.90
7686;DHT22;3885;51.474;-2.576;2023-01-29T15:00:54;10.00;99.90
7686;DHT22;3885;51.474;-2.576;2023-01-29T15:03:28;9.90;99.90
7686;DHT22;3885;51.474;-2.576;2023-01-29T15:06:01;9.90;99.90
7686;DHT22;3885;51.474;-2.576;2023-01-29T15:08:34;9.90;99.90
7686;DHT22;3885;51.474;-2.576;2023-01-29T15:11:07;9.80;99.90
7686;DHT22;3885;51.474;-2.576;2023-01-29T15:24:03;9.70;99.90
7686;DHT22;3885;51.474;-2.576;2023-01-29T15:26:30;9.80;99.90
7686;DHT22;3885;51.474;-2.576;2023-01-29T15:28:58;9.80;99.90
7686;DHT22;3885;51.474;-2.576;2023-01-29T15:33:55;9.70;99.90
7686;DHT22;3885;51.474;-2.576;2023-01-29T15:36:24;9.70;99.90
7686;DHT22;3885;51.474;-2.576;2023-01-29T15:39:13;9.70;99.90
7686;DHT22;3885;51.474;-2.576;2023-01-29T15:41:40;9.70;99.90
7686;DHT22;3885;51.474;-2.576;2023-01-29T15:44:11;9.70;99.90
7686;DHT22;3885;51.474;-2.576;2023-01-29T15:46:40;9.70;99.90
7686;DHT22;3885;51.474;-2.576;2023-01-29T15:49:16;9.80;99.90
7686;DHT22;3885;51.474;-2.576;2023-01-29T15:54:14;9.80;99.90
7686;DHT22;3885;51.474;-2.576;2023-01-29T15:59:15;9.70;99.90
7686;DHT22;3885;51.474;-2.576;2023-01-29T16:04:14;9.60;99.90
7686;DHT22;3885;51.474;-2.576;2023-01-29T16:06:43;9.60;99.90
7686;DHT22;3885;51.474;-2.576;2023-01-29T16:09:16;9.60;99.90
7686;DHT22;3885;51.474;-2.576;2023-01-29T16:11:44;9.50;99.90
7686;DHT22;3885;51.474;-2.576;2023-01-29T16:14:13;9.40;99.90
7686;DHT22;3885;51.474;-2.576;2023-01-29T16:16:42;9.40;99.90
7686;DHT22;3885;51.474;-2.576;2023-01-29T16:19:19;9.30;99.90
7686;DHT22;3885;51.474;-2.576;2023-01-29T16:21:51;9.30;99.90
7686;DHT22;3885;51.474;-2.576;2023-01-29T16:24:21;9.20;99.90
7686;DHT22;3885;51.474;-2.576;2023-01-29T16:26:51;9.10;99.90
7686;DHT22;3885;51.474;-2.576;2023-01-29T16:31:51;9.00;99.90
7686;DHT22;3885;51.474;-2.576;2023-01-29T16:34:26;9.00;99.90
7686;DHT22;3885;51.474;-2.576;2023-01-29T16:36:54;8.90;99.90
7686;DHT22;3885;51.474;-2.576;2023-01-29T16:39:24;8.90;99.90
7686;DHT22;3885;51.474;-2.576;2023-01-29T16:42:20;8.80;99.90
7686;DHT22;3885;51.474;-2.576;2023-01-29T16:44:51;8.70;99.90
7686;DHT22;3885;51.474;-2.576;2023-01-29T16:47:25;8.70;99.90
7686;DHT22;3885;51.474;-2.576;2023-01-29T16:49:55;8.60;99.90
7686;DHT22;3885;51.474;-2.576;2023-01-29T16:52:24;8.60;99.90
7686;DHT22;3885;51.474;-2.576;2023-01-29T16:54:52;8.40;99.90
7686;DHT22;3885;51.474;-2.576;2023-01-29T16:57:26;8.30;99.90
7686;DHT22;3885;51.474;-2.576;2023-01-29T16:59:56;8.30;99.90
7686;DHT22;3885;51.474;-2.576;2023-01-29T17:02:26;8.20;99.90
7686;DHT22;3885;51.474;-2.576;2023-01-29T17:04:58;8.10;99.90
7686;DHT22;3885;51.474;-2.576;2023-01-29T17:07:26;8.10;99.90
7686;DHT22;3885;51.474;-2.576;2023-01-29T17:12:25;8.00;99.90
7686;DHT22;3885;51.474;-2.576;2023-01-29T17:14:54;8.00;99.90
7686;DHT22;3885;51.474;-2.576;2023-01-29T17:17:28;8.00;99.90
7686;DHT22;3885;51.474;-2.576;2023-01-29T17:19:57;8.00;99.90
7686;DHT22;3885;51.474;-2.576;2023-01-29T17:22:24;8.10;99.90
7686;DHT22;3885;51.474;-2.576;2023-01-29T17:27:20;8.00;99.90
7686;DHT22;3885;51.474;-2.576;2023-01-29T17:29:48;7.90;99.90
7686;DHT22;3885;51.474;-2.576;2023-01-29T17:34:43;7.90;99.90
7686;DHT22;3885;51.474;-2.576;2023-01-29T17:37:13;7.90;99.90
7686;DHT22;3885;51.474;-2.576;2023-01-29T17:39:41;7.90;99.90
7686;DHT22;3885;51.474;-2.576;2023-01-29T17:42:12;7.90;99.90
7686;DHT22;3885;51.474;-2.576;2023-01-29T17:44:40;7.80;99.90
7686;DHT22;3885;51.474;-2.576;2023-01-29T17:47:12;7.80;99.90
7686;DHT22;3885;51.474;-2.576;2023-01-29T17:49:40;7.80;99.90
7686;DHT22;3885;51.474;-2.576;2023-01-29T17:52:07;7.80;99.90
7686;DHT22;3885;51.474;-2.576;2023-01-29T17:54:36;7.80;99.90
7686;DHT22;3885;51.474;-2.576;2023-01-29T17:57:03;7.80;99.90
7686;DHT22;3885;51.474;-2.576;2023-01-29T17:59:31;7.80;99.90
7686;DHT22;3885;51.474;-2.576;2023-01-29T18:01:59;7.80;99.90
7686;DHT22;3885;51.474;-2.576;2023-01-29T18:09:21;7.80;99.90
7686;DHT22;3885;51.474;-2.576;2023-01-29T18:11:50;7.80;99.90
7686;DHT22;3885;51.474;-2.576;2023-01-29T18:19:15;7.90;99.90
7686;DHT22;3885;51.474;-2.576;2023-01-29T18:24:11;8.00;99.90
7686;DHT22;3885;51.474;-2.576;2023-01-29T18:26:38;7.90;99.90
7686;DHT22;3885;51.474;-2.576;2023-01-29T18:29:07;7.90;99.90
7686;DHT22;3885;51.474;-2.576;2023-01-29T18:31:34;7.80;99.90
7686;DHT22;3885;51.474;-2.576;2023-01-29T18:34:01;7.90;99.90
7686;DHT22;3885;51.474;-2.576;2023-01-29T18:36:28;7.80;99.90
7686;DHT22;3885;51.474;-2.576;2023-01-29T18:41:22;7.80;99.90
7686;DHT22;3885;51.474;-2.576;2023-01-29T18:43:49;7.80;99.90
7686;DHT22;3885;51.474;-2.576;2023-01-29T18:56:09;7.70;99.90
7686;DHT22;3885;51.474;-2.576;2023-01-29T18:58:36;7.70;99.90
7686;DHT22;3885;51.474;-2.576;2023-01-29T19:06:03;7.60;99.90
7686;DHT22;3885;51.474;-2.576;2023-01-29T19:08:31;7.60;99.90
7686;DHT22;3885;51.474;-2.576;2023-01-29T19:13:28;7.70;99.90
7686;DHT22;3885;51.474;-2.576;2023-01-29T19:15:55;7.70;99.90
7686;DHT22;3885;51.474;-2.576;2023-01-29T19:18:22;7.70;99.90
7686;DHT22;3885;51.474;-2.576;2023-01-29T19:20:52;7.80;99.90
7686;DHT22;3885;51.474;-2.576;2023-01-29T19:23:19;7.70;99.90
7686;DHT22;3885;51.474;-2.576;2023-01-29T19:25:46;7.70;99.90
7686;DHT22;3885;51.474;-2.576;2023-01-29T19:30:40;7.80;99.90
7686;DHT22;3885;51.474;-2.576;2023-01-29T19:33:08;7.80;99.90
7686;DHT22;3885;51.474;-2.576;2023-01-29T19:35:36;7.80;99.90
7686;DHT22;3885;51.474;-2.576;2023-01-29T19:38:04;7.90;99.90
7686;DHT22;3885;51.474;-2.576;2023-01-29T19:40:31;7.90;99.90
7686;DHT22;3885;51.474;-2.576;2023-01-29T19:42:58;7.90;99.90
7686;DHT22;3885;51.474;-2.576;2023-01-29T19:45:25;8.00;99.90
7686;DHT22;3885;51.474;-2.576;2023-01-29T19:47:52;8.00;99.90
7686;DHT22;3885;51.474;-2.576;2023-01-29T19:55:18;7.90;99.90
7686;DHT22;3885;51.474;-2.576;2023-01-29T19:57:45;7.90;99.90
7686;DHT22;3885;51.474;-2.576;2023-01-29T20:00:13;7.90;99.90
7686;DHT22;3885;51.474;-2.576;2023-01-29T20:02:41;7.90;99.90
7686;DHT22;3885;51.474;-2.576;2023-01-29T20:05:09;7.90;99.90
7686;DHT22;3885;51.474;-2.576;2023-01-29T20:07:37;7.90;99.90
7686;DHT22;3885;51.474;-2.576;2023-01-29T20:12:34;7.90;99.90
7686;DHT22;3885;51.474;-2.576;2023-01-29T20:15:01;7.90;99.90
7686;DHT22;3885;51.474;-2.576;2023-01-29T20:17:28;8.00;99.90
7686;DHT22;3885;51.474;-2.576;2023-01-29T20:19:55;8.00;99.90
7686;DHT22;3885;51.474;-2.576;2023-01-29T20:24:49;8.10;99.90
7686;DHT22;3885;51.474;-2.576;2023-01-29T20:27:16;8.10;99.90
7686;DHT22;3885;51.474;-2.576;2023-01-29T20:29:45;8.10;99.90
7686;DHT22;3885;51.474;-2.576;2023-01-29T20:32:11;8.00;99.90
7686;DHT22;3885;51.474;-2.576;2023-01-29T20:34:39;8.10;99.90
7686;DHT22;3885;51.474;-2.576;2023-01-29T20:37:06;8.00;99.90
7686;DHT22;3885;51.474;-2.576;2023-01-29T20:39:33;8.00;99.90
7686;DHT22;3885;51.474;-2.576;2023-01-29T20:41:59;8.00;99.90
7686;DHT22;3885;51.474;-2.576;2023-01-29T20:46:55;8.00;99.90
7686;DHT22;3885;51.474;-2.576;2023-01-29T20:49:24;8.00;99.90
7686;DHT22;3885;51.474;-2.576;2023-01-29T20:56:47;8.20;99.90
7686;DHT22;3885;51.474;-2.576;2023-01-29T20:59:14;8.20;99.90
7686;DHT22;3885;51.474;-2.576;2023-01-29T21:01:41;8.20;99.90
7686;DHT22;3885;51.474;-2.576;2023-01-29T21:04:09;8.30;99.90
7686;DHT22;3885;51.474;-2.576;2023-01-29T21:06:36;8.30;99.90
7686;DHT22;3885;51.474;-2.576;2023-01-29T21:09:03;8.30;99.90
7686;DHT22;3885;51.474;-2.576;2023-01-29T21:11:30;8.40;99.90
7686;DHT22;3885;51.474;-2.576;2023-01-29T21:16:26;8.40;99.90
7686;DHT22;3885;51.474;-2.576;2023-01-29T21:18:56;8.50;99.90
7686;DHT22;3885;51.474;-2.576;2023-01-29T21:21:25;8.50;99.90
7686;DHT22;3885;51.474;-2.576;2023-01-29T21:31:15;8.50;99.90
7686;DHT22;3885;51.474;-2.576;2023-01-29T21:33:42;8.50;99.90
7686;DHT22;3885;51.474;-2.576;2023-01-29T21:38:38;8.40;99.90
7686;DHT22;3885;51.474;-2.576;2023-01-29T21:41:06;8.30;99.90
7686;DHT22;3885;51.474;-2.576;2023-01-29T21:43:34;8.30;99.90
7686;DHT22;3885;51.474;-2.576;2023-01-29T21:48:30;8.30;99.90
7686;DHT22;3885;51.474;-2.576;2023-01-29T21:53:24;8.20;99.90
7686;DHT22;3885;51.474;-2.576;2023-01-29T21:55:58;8.20;99.90
7686;DHT22;3885;51.474;-2.576;2023-01-29T22:00:52;8.10;99.90
7686;DHT22;3885;51.474;-2.576;2023-01-29T22:05:46;8.10;99.90
7686;DHT22;3885;51.474;-2.576;2023-01-29T22:08:15;8.00;99.90
7686;DHT22;3885;51.474;-2.576;2023-01-29T22:10:42;8.10;99.90
7686;DHT22;3885;51.474;-2.576;2023-01-29T22:13:10;8.10;99.90
7686;DHT22;3885;51.474;-2.576;2023-01-29T22:15:38;8.10;99.90
7686;DHT22;3885;51.474;-2.576;2023-01-29T22:18:05;8.10;99.90
7686;DHT22;3885;51.474;-2.576;2023-01-29T22:20:32;8.10;99.90
7686;DHT22;3885;51.474;-2.576;2023-01-29T22:22:59;8.10;99.90
7686;DHT22;3885;51.474;-2.576;2023-01-29T22:25:26;8.20;99.90
7686;DHT22;3885;51.474;-2.576;2023-01-29T22:27:53;8.20;99.90
7686;DHT22;3885;51.474;-2.576;2023-01-29T22:30:21;8.20;99.90
7686;DHT22;3885;51.474;-2.576;2023-01-29T22:32:48;8.20;99.90